createdAt,value
2018-12-04T00:01:43.742Z,5.40
2018-12-04T00:04:17.712Z,5.40
2018-12-04T00:06:51.425Z,5.40
2018-12-04T00:09:24.974Z,5.40
2018-12-04T00:12:02.171Z,5.40
2018-12-04T00:14:42.586Z,5.40
2018-12-04T00:17:20.678Z,5.50
2018-12-04T00:19:54.316Z,5.50
2018-12-04T00:22:32.403Z,5.50
2018-12-04T00:25:12.810Z,5.50
2018-12-04T00:27:50.236Z,5.50
2018-12-04T00:30:28.157Z,5.50
2018-12-04T00:33:01.280Z,5.50
2018-12-04T00:35:39.770Z,5.50
2018-12-04T00:38:17.740Z,5.50
2018-12-04T00:40:54.680Z,5.50
2018-12-04T00:43:31.469Z,5.40
2018-12-04T00:46:04.191Z,5.40
2018-12-04T00:48:38.219Z,5.30
2018-12-04T00:51:14.503Z,5.20
2018-12-04T00:53:47.458Z,5.10
2018-12-04T00:56:25.097Z,5.10
2018-12-04T00:58:58.317Z,5.10
2018-12-04T01:01:30.721Z,5.10
2018-12-04T01:04:04.215Z,5.10
2018-12-04T01:06:36.479Z,5.20
2018-12-04T01:09:11.394Z,5.20
2018-12-04T01:11:44.396Z,5.20
2018-12-04T01:14:16.803Z,5.20
2018-12-04T01:17:29.914Z,5.20
2018-12-04T01:20:02.186Z,5.20
2018-12-04T01:22:35.060Z,5.20
2018-12-04T01:25:14.282Z,5.30
2018-12-04T01:27:48.291Z,5.20
2018-12-04T01:30:27.126Z,5.20
2018-12-04T01:32:59.680Z,5.30
2018-12-04T01:35:32.759Z,5.30
2018-12-04T01:38:11.230Z,5.30
2018-12-04T01:40:47.564Z,5.30
2018-12-04T01:43:21.680Z,5.20
2018-12-04T01:45:54.498Z,5.30
2018-12-04T01:48:25.660Z,5.30
2018-12-04T01:50:58.724Z,5.30
2018-12-04T01:53:32.888Z,5.30
2018-12-04T01:56:06.940Z,5.30
2018-12-04T01:58:41.101Z,5.30
2018-12-04T02:01:14.100Z,5.30
2018-12-04T02:03:50.862Z,5.30
2018-12-04T02:06:25.591Z,5.30
2018-12-04T02:09:02.081Z,5.30
2018-12-04T02:11:42.608Z,5.30
2018-12-04T02:14:20.562Z,5.30
2018-12-04T02:16:59.378Z,5.30
2018-12-04T02:19:36.344Z,5.30
2018-12-04T02:22:13.662Z,5.30
2018-12-04T02:24:46.852Z,5.30
2018-12-04T02:27:23.646Z,5.30
2018-12-04T02:29:56.018Z,5.30
2018-12-04T02:32:32.937Z,5.30
2018-12-04T02:35:06.813Z,5.30
2018-12-04T02:37:40.808Z,5.30
2018-12-04T02:40:14.089Z,5.30
2018-12-04T02:42:51.740Z,5.30
2018-12-04T02:45:31.101Z,5.20
2018-12-04T02:48:04.166Z,5.30
2018-12-04T02:50:37.494Z,5.30
2018-12-04T02:53:10.822Z,5.30
2018-12-04T02:55:51.104Z,5.30
2018-12-04T02:58:28.639Z,5.30
2018-12-04T03:01:07.105Z,5.30
2018-12-04T03:03:41.176Z,5.30
2018-12-04T03:06:20.700Z,5.40
2018-12-04T03:08:59.913Z,5.30
2018-12-04T03:11:33.540Z,5.30
2018-12-04T03:14:10.439Z,5.30
2018-12-04T03:16:43.899Z,5.40
2018-12-04T03:19:20.441Z,5.40
2018-12-04T03:21:53.877Z,5.40
2018-12-04T03:24:27.031Z,5.40
2018-12-04T03:27:00.135Z,5.40
2018-12-04T03:29:33.590Z,5.40
2018-12-04T03:32:14.295Z,5.40
2018-12-04T03:34:47.446Z,5.40
2018-12-04T03:37:24.440Z,5.40
2018-12-04T03:39:56.843Z,5.40
2018-12-04T03:42:34.240Z,5.40
2018-12-04T03:45:07.712Z,5.40
2018-12-04T03:47:49.044Z,5.40
2018-12-04T03:50:30.594Z,5.40
2018-12-04T03:53:09.626Z,5.40
2018-12-04T03:55:43.554Z,5.40
2018-12-04T03:58:16.458Z,5.40
2018-12-04T04:00:49.708Z,5.40
2018-12-04T04:03:22.602Z,5.40
2018-12-04T04:06:00.174Z,5.40
2018-12-04T04:08:36.786Z,5.40
2018-12-04T04:11:10.635Z,5.40
2018-12-04T04:13:48.158Z,5.40
2018-12-04T04:16:25.055Z,5.40
2018-12-04T04:18:59.128Z,5.40
2018-12-04T04:21:36.164Z,5.40
2018-12-04T04:24:16.979Z,5.30
2018-12-04T04:26:50.094Z,5.30
2018-12-04T04:29:27.825Z,5.30
2018-12-04T04:32:01.233Z,5.30
2018-12-04T04:34:39.127Z,5.30
2018-12-04T04:37:13.446Z,5.30
2018-12-04T04:39:50.405Z,5.30
2018-12-04T04:42:22.770Z,5.30
2018-12-04T04:44:59.721Z,5.20
2018-12-04T04:47:35.624Z,5.20
2018-12-04T04:50:12.655Z,5.20
2018-12-04T04:52:45.553Z,5.20
2018-12-04T04:55:17.995Z,5.10
2018-12-04T04:57:50.489Z,5.20
2018-12-04T05:00:30.991Z,5.20
2018-12-04T05:03:04.262Z,5.10
2018-12-04T05:05:42.492Z,5.20
2018-12-04T05:08:17.782Z,5.10
2018-12-04T05:10:52.352Z,5.10
2018-12-04T05:13:28.190Z,5.10
2018-12-04T05:16:01.477Z,5.10
2018-12-04T05:18:37.446Z,5.00
2018-12-04T05:21:09.955Z,5.00
2018-12-04T05:23:52.724Z,5.10
2018-12-04T05:26:28.462Z,5.10
2018-12-04T05:29:01.903Z,5.10
2018-12-04T05:31:38.948Z,5.10
2018-12-04T05:34:12.245Z,5.10
2018-12-04T05:36:51.186Z,5.10
2018-12-04T05:39:24.656Z,5.10
2018-12-04T05:41:58.706Z,5.20
2018-12-04T05:44:35.081Z,5.20
2018-12-04T05:47:08.145Z,5.20
2018-12-04T05:49:42.986Z,5.20
2018-12-04T05:52:19.523Z,5.20
2018-12-04T05:54:54.659Z,5.20
2018-12-04T05:57:27.550Z,5.20
2018-12-04T06:00:00.477Z,5.20
2018-12-04T06:02:37.244Z,5.20
2018-12-04T06:05:14.520Z,5.20
2018-12-04T06:07:51.510Z,5.30
2018-12-04T06:10:25.127Z,5.20
2018-12-04T06:13:02.792Z,5.30
2018-12-04T06:15:35.980Z,5.20
2018-12-04T06:18:09.700Z,5.30
2018-12-04T06:20:52.502Z,5.30
2018-12-04T06:23:29.115Z,5.30
2018-12-04T06:28:31.517Z,5.30
2018-12-04T06:31:08.302Z,5.30
2018-12-04T06:33:42.276Z,5.30
2018-12-04T06:36:15.614Z,5.30
2018-12-04T06:38:52.513Z,5.30
2018-12-04T06:41:30.698Z,5.30
2018-12-04T06:44:04.619Z,5.30
2018-12-04T06:46:37.653Z,5.40
2018-12-04T06:52:35.422Z,5.30
2018-12-04T06:55:14.459Z,5.30
2018-12-04T06:57:58.642Z,5.30
2018-12-04T07:00:37.029Z,5.30
2018-12-04T07:03:15.675Z,5.30
2018-12-04T07:05:54.978Z,5.30
2018-12-04T07:08:32.220Z,5.30
2018-12-04T07:11:18.601Z,5.30
2018-12-04T07:13:56.227Z,5.30
2018-12-04T07:16:38.402Z,5.30
2018-12-04T07:19:19.215Z,5.30
2018-12-04T07:21:56.516Z,5.30
2018-12-04T07:24:34.741Z,5.30
2018-12-04T07:27:07.528Z,5.30
2018-12-04T07:29:44.881Z,5.30
2018-12-04T07:32:28.006Z,5.40
2018-12-04T07:35:12.742Z,5.30
2018-12-04T07:37:47.177Z,5.30
2018-12-04T07:40:26.493Z,5.30
2018-12-04T07:43:06.751Z,5.30
2018-12-04T07:45:44.656Z,5.30
2018-12-04T07:48:28.961Z,5.30
2018-12-04T07:51:06.887Z,5.30
2018-12-04T07:53:51.379Z,5.40
2018-12-04T07:56:31.411Z,5.40
2018-12-04T07:59:06.027Z,5.40
2018-12-04T08:01:43.915Z,5.40
2018-12-04T08:04:32.901Z,5.40
2018-12-04T08:07:10.870Z,5.40
2018-12-04T08:09:53.675Z,5.40
2018-12-04T08:12:33.459Z,5.40
2018-12-04T08:15:18.925Z,5.40
2018-12-04T08:18:00.795Z,5.40
2018-12-04T08:21:09.005Z,5.40
2018-12-04T08:23:55.261Z,5.40
2018-12-04T08:26:39.157Z,5.40
2018-12-04T08:29:25.862Z,5.50
2018-12-04T08:35:24.768Z,5.50
2018-12-04T08:37:59.741Z,5.50
2018-12-04T08:40:42.017Z,5.50
2018-12-04T08:43:40.167Z,5.60
2018-12-04T08:46:30.385Z,5.60
2018-12-04T08:49:09.671Z,5.50
2018-12-04T08:51:45.855Z,5.60
2018-12-04T08:54:22.400Z,5.60
2018-12-04T08:57:04.214Z,5.50
2018-12-04T08:59:46.187Z,5.50
2018-12-04T09:02:28.351Z,5.60
2018-12-04T09:05:04.763Z,5.60
2018-12-04T09:07:42.569Z,5.60
2018-12-04T09:10:22.984Z,5.50
2018-12-04T09:13:02.222Z,5.50
2018-12-04T09:15:39.985Z,5.60
2018-12-04T09:18:14.854Z,5.60
2018-12-04T09:20:55.770Z,5.60
2018-12-04T09:23:41.094Z,5.60
2018-12-04T09:26:23.833Z,5.60
2018-12-04T09:29:04.879Z,5.60
2018-12-04T09:31:38.728Z,5.60
2018-12-04T09:34:20.633Z,5.60
2018-12-04T09:36:59.427Z,5.60
2018-12-04T09:39:49.830Z,5.60
2018-12-04T09:42:28.479Z,5.50
2018-12-04T09:45:10.063Z,5.60
2018-12-04T09:48:13.821Z,5.60
2018-12-04T09:50:54.210Z,5.60
2018-12-04T09:53:37.812Z,5.60
2018-12-04T09:56:19.915Z,5.70
2018-12-04T09:58:59.781Z,5.70
2018-12-04T10:01:45.165Z,5.70
2018-12-04T10:04:17.808Z,5.70
2018-12-04T10:07:00.144Z,5.70
2018-12-04T10:09:53.815Z,5.80
2018-12-04T10:12:41.154Z,5.80
2018-12-04T10:15:16.552Z,5.80
2018-12-04T10:18:06.734Z,5.80
2018-12-04T10:21:20.792Z,5.80
2018-12-04T10:24:09.511Z,5.80
2018-12-04T10:26:57.521Z,5.80
2018-12-04T10:29:41.911Z,5.80
2018-12-04T10:32:30.336Z,5.80
2018-12-04T10:35:08.695Z,5.80
2018-12-04T10:37:56.157Z,5.80
2018-12-04T10:40:35.975Z,5.90
2018-12-04T10:43:15.055Z,5.90
2018-12-04T10:46:08.808Z,5.90
2018-12-04T10:48:58.399Z,6.00
2018-12-04T10:51:43.282Z,6.00
2018-12-04T10:54:19.453Z,6.00
2018-12-04T10:56:57.829Z,6.00
2018-12-04T10:59:38.734Z,6.10
2018-12-04T11:02:30.126Z,6.10
2018-12-04T11:05:15.999Z,6.10
2018-12-04T11:08:08.937Z,6.10
2018-12-04T11:10:52.136Z,6.10
2018-12-04T11:13:36.396Z,6.10
2018-12-04T11:16:44.325Z,6.10
2018-12-04T11:19:22.806Z,6.10
2018-12-04T11:22:22.008Z,6.10
2018-12-04T11:25:03.086Z,6.20
2018-12-04T11:27:46.739Z,6.20
2018-12-04T11:30:36.343Z,6.20
2018-12-04T11:33:18.555Z,6.20
2018-12-04T12:01:33.040Z,6.30
2018-12-04T12:04:19.319Z,6.30
2018-12-04T12:07:20.647Z,6.40
2018-12-04T12:12:42.695Z,6.40
2018-12-04T12:15:17.896Z,6.40
2018-12-04T12:18:12.520Z,6.50
2018-12-04T12:20:49.090Z,6.60
2018-12-04T12:23:33.915Z,6.60
2018-12-04T12:26:08.696Z,6.60
2018-12-04T12:28:42.787Z,6.70
2018-12-04T12:31:23.300Z,6.70
2018-12-04T12:34:06.314Z,6.80
2018-12-04T12:36:46.682Z,6.90
2018-12-04T12:39:26.945Z,7.00
2018-12-04T12:45:15.611Z,7.10
2018-12-04T12:48:01.115Z,7.10
2018-12-04T12:50:49.231Z,7.10
2018-12-04T12:53:46.727Z,7.20
2018-12-04T12:56:22.358Z,7.20
2018-12-04T12:59:07.014Z,7.20
2018-12-04T13:01:44.965Z,7.20
2018-12-04T13:09:29.040Z,7.30
2018-12-04T13:12:10.342Z,7.40
2018-12-04T13:14:43.616Z,7.40
2018-12-04T13:17:34.340Z,7.30
2018-12-04T13:20:08.438Z,7.30
2018-12-04T13:22:54.579Z,7.30
2018-12-04T13:25:48.477Z,7.30
2018-12-04T13:28:26.077Z,7.30
2018-12-04T13:30:59.545Z,7.30
2018-12-04T13:33:44.232Z,7.30
2018-12-04T13:36:27.662Z,7.30
2018-12-04T13:39:11.234Z,7.30
2018-12-04T13:41:55.279Z,7.20
2018-12-04T13:44:38.384Z,7.20
2018-12-04T13:47:17.799Z,7.20
2018-12-04T13:53:26.106Z,7.20
2018-12-04T13:55:59.441Z,7.10
2018-12-04T13:58:48.991Z,7.10
2018-12-04T14:01:27.353Z,7.10
2018-12-04T14:04:24.741Z,7.10
2018-12-04T14:07:06.922Z,7.10
2018-12-04T14:09:54.065Z,7.10
2018-12-04T14:12:35.257Z,7.10
2018-12-04T14:15:16.516Z,7.10
2018-12-04T14:17:55.829Z,7.10
2018-12-04T14:20:34.586Z,7.10
2018-12-04T14:23:16.135Z,7.10
2018-12-04T14:25:56.049Z,7.10
2018-12-04T14:28:33.202Z,7.00
2018-12-04T14:31:12.876Z,7.00
2018-12-04T14:33:57.441Z,6.90
2018-12-04T14:36:38.633Z,6.90
2018-12-04T14:39:21.259Z,6.80
2018-12-04T14:41:57.803Z,6.80
2018-12-04T14:44:56.182Z,6.80
2018-12-04T14:47:35.472Z,6.80
2018-12-04T14:50:12.666Z,6.70
2018-12-04T14:52:57.383Z,6.70
2018-12-04T14:55:39.785Z,6.60
2018-12-04T14:58:20.336Z,6.60
2018-12-04T15:00:58.927Z,6.60
2018-12-04T15:03:39.220Z,6.50
2018-12-04T15:06:36.910Z,6.50
2018-12-04T15:09:15.075Z,6.50
2018-12-04T15:11:55.793Z,6.40
2018-12-04T15:14:31.076Z,6.40
2018-12-04T15:17:07.520Z,6.40
2018-12-04T15:19:42.749Z,6.40
2018-12-04T15:22:25.022Z,6.40
2018-12-04T15:25:00.082Z,6.40
2018-12-04T15:27:34.732Z,6.30
2018-12-04T15:30:09.033Z,6.30
2018-12-04T15:32:51.891Z,6.30
2018-12-04T15:35:34.020Z,6.20
2018-12-04T15:38:17.787Z,6.20
2018-12-04T15:40:52.918Z,6.20
2018-12-04T15:43:35.664Z,6.10
2018-12-04T15:46:10.255Z,6.10
2018-12-04T15:49:04.369Z,6.10
2018-12-04T15:51:42.875Z,6.10
2018-12-04T15:54:22.321Z,6.00
2018-12-04T15:56:57.590Z,6.00
2018-12-04T15:59:40.004Z,6.00
2018-12-04T16:02:32.676Z,6.00
2018-12-04T16:05:08.066Z,6.00
2018-12-04T16:11:13.076Z,5.90
2018-12-04T16:13:55.094Z,5.90
2018-12-04T16:16:34.552Z,5.90
2018-12-04T16:19:08.519Z,5.80
2018-12-04T16:21:45.366Z,5.80
2018-12-04T16:24:29.626Z,5.80
2018-12-04T16:27:22.820Z,5.70
2018-12-04T16:30:10.780Z,5.70
2018-12-04T16:36:34.907Z,5.60
2018-12-04T16:39:15.147Z,5.50
2018-12-04T16:42:03.661Z,5.40
2018-12-04T16:44:42.088Z,5.50
2018-12-04T16:47:21.216Z,5.50
2018-12-04T16:50:06.463Z,5.40
2018-12-04T16:53:04.522Z,5.40
2018-12-04T16:55:45.837Z,5.40
2018-12-04T16:58:33.457Z,5.40
2018-12-04T17:01:15.290Z,5.40
2018-12-04T17:07:41.737Z,5.40
2018-12-04T17:12:48.690Z,5.50
2018-12-04T17:17:57.315Z,5.70
2018-12-04T17:20:26.045Z,6.10
2018-12-04T17:22:55.464Z,5.80
2018-12-04T17:25:24.364Z,5.60
2018-12-04T17:27:53.355Z,5.50
2018-12-04T17:30:22.253Z,5.30
2018-12-04T17:32:51.390Z,5.30
2018-12-04T17:35:20.155Z,5.30
2018-12-04T17:37:48.966Z,5.20
2018-12-04T17:40:17.864Z,5.20
2018-12-04T17:42:48.376Z,5.10
2018-12-04T17:45:17.169Z,5.10
2018-12-04T17:47:46.836Z,5.10
2018-12-04T17:50:15.570Z,5.10
2018-12-04T17:52:44.483Z,5.00
2018-12-04T17:55:13.143Z,5.00
2018-12-04T17:57:41.838Z,4.90
2018-12-04T18:00:13.590Z,4.90
2018-12-04T18:02:42.254Z,4.90
2018-12-04T18:05:10.950Z,4.90
2018-12-04T18:07:40.344Z,4.90
2018-12-04T18:10:09.492Z,4.80
2018-12-04T18:12:38.681Z,4.80
2018-12-04T18:15:08.810Z,4.80
2018-12-04T18:17:38.372Z,4.80
2018-12-04T18:20:08.398Z,4.70
2018-12-04T18:22:37.227Z,4.70
2018-12-04T18:25:06.704Z,4.70
2018-12-04T18:27:35.364Z,4.70
2018-12-04T18:30:04.320Z,4.70
2018-12-04T18:32:33.030Z,4.70
2018-12-04T18:35:01.694Z,4.70
2018-12-04T18:37:30.816Z,4.70
2018-12-04T18:39:59.646Z,4.70
2018-12-04T18:42:28.374Z,4.70
2018-12-04T18:44:57.583Z,4.70
2018-12-04T18:47:26.358Z,4.60
2018-12-04T18:49:55.135Z,4.60
2018-12-04T18:52:23.950Z,4.60
2018-12-04T18:54:52.873Z,4.60
2018-12-04T18:57:21.727Z,4.60
2018-12-04T18:59:50.953Z,4.70
2018-12-04T19:02:20.345Z,4.70
2018-12-04T19:04:49.142Z,4.70
2018-12-04T19:07:18.250Z,4.70
2018-12-04T19:09:47.192Z,4.70
2018-12-04T19:12:16.318Z,4.60
2018-12-04T19:14:45.241Z,4.70
2018-12-04T19:17:14.228Z,4.60
2018-12-04T19:19:43.953Z,4.50
2018-12-04T19:22:12.826Z,4.40
2018-12-04T19:24:41.881Z,4.30
2018-12-04T19:27:10.576Z,4.40
2018-12-04T19:29:39.324Z,4.40
2018-12-04T19:32:08.007Z,4.50
2018-12-04T19:34:37.273Z,4.40
2018-12-04T19:37:05.994Z,4.40
2018-12-04T19:39:34.837Z,4.40
2018-12-04T19:42:03.794Z,4.40
2018-12-04T19:44:32.685Z,4.30
2018-12-04T19:47:02.038Z,4.30
2018-12-04T19:49:30.893Z,4.20
2018-12-04T19:51:59.707Z,4.20
2018-12-04T19:54:28.888Z,4.20
2018-12-04T19:56:58.370Z,4.20
2018-12-04T19:59:27.096Z,4.10
2018-12-04T20:01:56.649Z,4.00
2018-12-04T20:04:25.305Z,3.90
2018-12-04T20:06:54.073Z,3.90
2018-12-04T20:09:22.994Z,3.70
2018-12-04T20:11:51.931Z,3.70
2018-12-04T20:14:21.006Z,3.60
2018-12-04T20:16:49.986Z,3.60
2018-12-04T20:19:18.775Z,3.50
2018-12-04T20:21:47.520Z,3.40
2018-12-04T20:24:16.724Z,3.50
2018-12-04T20:26:45.844Z,3.40
2018-12-04T20:29:14.521Z,3.40
2018-12-04T20:31:43.167Z,3.40
2018-12-04T20:34:12.607Z,3.30
2018-12-04T20:36:42.084Z,3.20
2018-12-04T20:39:11.041Z,3.20
2018-12-04T20:41:40.440Z,3.20
2018-12-04T20:44:09.123Z,3.20
2018-12-04T20:46:37.803Z,3.10
2018-12-04T20:49:07.063Z,3.10
2018-12-04T20:51:35.857Z,3.10
2018-12-04T20:54:04.663Z,3.10
2018-12-04T20:56:33.306Z,3.10
2018-12-04T20:59:02.103Z,3.00
2018-12-04T21:01:30.794Z,3.00
2018-12-04T21:03:59.446Z,2.90
2018-12-04T21:06:28.174Z,2.90
2018-12-04T21:08:56.848Z,2.90
2018-12-04T21:11:25.619Z,2.90
2018-12-04T21:13:54.377Z,2.90
2018-12-04T21:16:23.062Z,2.80
2018-12-04T21:18:51.686Z,2.80
2018-12-04T21:21:20.560Z,2.80
2018-12-04T21:23:49.237Z,2.80
2018-12-04T21:26:17.896Z,2.70
2018-12-04T21:28:51.946Z,2.70
2018-12-04T21:31:26.013Z,2.70
2018-12-04T21:34:58.878Z,2.70
2018-12-04T21:37:32.872Z,2.60
2018-12-04T21:40:07.181Z,2.70
2018-12-04T21:42:41.205Z,2.70
2018-12-04T21:45:15.143Z,2.70
2018-12-04T21:47:48.973Z,2.60
2018-12-04T21:50:17.640Z,2.60
2018-12-04T21:52:46.333Z,2.50
2018-12-04T21:55:14.964Z,2.50
2018-12-04T21:57:44.410Z,2.50
2018-12-04T22:00:13.637Z,2.50
2018-12-04T22:02:43.033Z,2.40
2018-12-04T22:05:11.801Z,2.40
2018-12-04T22:07:40.429Z,2.30
2018-12-04T22:10:09.239Z,2.30
2018-12-04T22:12:37.901Z,2.20
2018-12-04T22:15:06.670Z,2.20
2018-12-04T22:17:35.303Z,2.10
2018-12-04T22:20:05.917Z,2.10
2018-12-04T22:22:35.293Z,2.00
2018-12-04T22:25:04.147Z,2.00
2018-12-04T22:27:32.816Z,2.00
2018-12-04T22:30:01.417Z,2.00
2018-12-04T22:32:30.014Z,1.90
2018-12-04T22:34:58.650Z,1.90
2018-12-04T22:37:27.283Z,1.90
2018-12-04T22:39:55.917Z,1.90
2018-12-04T22:42:24.551Z,1.90
2018-12-04T22:44:55.594Z,1.80
2018-12-04T22:47:24.275Z,1.80
2018-12-04T22:49:52.975Z,1.80
2018-12-04T22:52:21.656Z,1.80
2018-12-04T22:54:50.303Z,1.80
2018-12-04T22:57:18.903Z,1.80
2018-12-04T22:59:47.513Z,1.80
2018-12-04T23:02:16.185Z,1.70
2018-12-04T23:04:44.788Z,1.70
2018-12-04T23:07:13.373Z,1.70
2018-12-04T23:09:42.035Z,1.60
2018-12-04T23:12:10.797Z,1.60
2018-12-04T23:14:39.382Z,1.60
2018-12-04T23:17:08.019Z,1.60
2018-12-04T23:19:36.622Z,1.60
2018-12-04T23:22:05.236Z,1.70
2018-12-04T23:24:33.982Z,1.70
2018-12-04T23:27:02.587Z,1.70
2018-12-04T23:29:31.219Z,1.70
2018-12-04T23:31:59.870Z,1.70
2018-12-04T23:34:28.489Z,1.70
2018-12-04T23:36:57.119Z,1.70
2018-12-04T23:39:25.734Z,1.70
2018-12-04T23:41:54.349Z,1.80
2018-12-04T23:44:25.191Z,1.80
2018-12-04T23:46:53.819Z,1.80
2018-12-04T23:49:22.425Z,1.70
2018-12-04T23:51:51.128Z,1.70
2018-12-04T23:54:19.742Z,1.70
2018-12-04T23:56:48.460Z,1.70
2018-12-04T23:59:17.082Z,1.60
